Time;durP1;ratioP1;P1;durP2;ratioP2;P2;SDS_P1;SDS_P2;PMS_P1;PMS_P2;Temp;Humidity;BMP_temperature;BMP_pressure;BME280_temperature;BME280_humidity;BME280_pressure;Samples;Min_cycle;Max_cycle;Signal;HPM_P1;HPM_P2
2023/09/19 00:01:46;;;;;;;14.18;8.35;;;;;;;;;;5061393;28;20025;-56
2023/09/19 00:04:14;;;;;;;12.30;8.95;;;;;;;;;;5061927;28;20052;-55
2023/09/19 00:06:41;;;;;;;9.85;8.25;;;;;;;;;;5065374;28;20032;-55
2023/09/19 00:09:10;;;;;;;11.30;8.13;;;23.10;99.90;;;;;;5062354;28;20028;-55
2023/09/19 00:11:37;;;;;;;10.40;7.65;;;23.10;99.90;;;;;;5033229;28;20033;-54
2023/09/19 00:14:08;;;;;;;14.13;7.65;;;;;;;;;;5061079;28;20036;-55
2023/09/19 00:16:34;;;;;;;10.45;8.10;;;23.00;99.90;;;;;;5024211;28;20080;-55
2023/09/19 00:19:07;;;;;;;8.55;7.10;;;23.00;99.90;;;;;;5011356;28;20437;-55
2023/09/19 00:21:32;;;;;;;8.85;7.18;;;22.90;99.90;;;;;;5070604;28;20032;-55
2023/09/19 00:23:58;;;;;;;10.52;7.28;;;22.90;99.90;;;;;;5062720;28;20048;-55
2023/09/19 00:26:24;;;;;;;9.63;7.45;;;22.80;99.90;;;;;;5062547;28;20056;-55
2023/09/19 00:28:52;;;;;;;9.75;7.40;;;22.90;99.90;;;;;;5023257;28;20483;-55
2023/09/19 00:31:18;;;;;;;13.98;8.73;;;22.90;99.90;;;;;;5048525;28;20407;-55
2023/09/19 00:33:44;;;;;;;12.90;8.73;;;22.90;99.90;;;;;;5061663;28;20025;-55
2023/09/19 00:36:10;;;;;;;9.55;7.68;;;;;;;;;;5061592;28;20072;-55
2023/09/19 00:38:36;;;;;;;13.23;8.73;;;22.90;99.90;;;;;;5063162;28;20043;-55
2023/09/19 00:41:02;;;;;;;11.90;7.80;;;23.00;99.90;;;;;;5061414;28;20063;-55
2023/09/19 00:43:29;;;;;;;12.35;8.57;;;23.00;99.90;;;;;;5068385;28;20089;-55
2023/09/19 00:45:56;;;;;;;11.00;7.75;;;23.00;99.90;;;;;;5060546;28;20029;-55
2023/09/19 00:48:22;;;;;;;13.43;8.45;;;22.90;99.90;;;;;;5068102;28;20056;-55
2023/09/19 00:50:49;;;;;;;11.15;8.02;;;22.90;99.90;;;;;;5066885;28;20368;-55
2023/09/19 00:53:19;;;;;;;9.65;7.70;;;22.90;99.90;;;;;;5063602;28;20550;-56
2023/09/19 00:55:46;;;;;;;11.48;8.10;;;22.90;99.90;;;;;;5044774;28;20040;-56
2023/09/19 00:58:12;;;;;;;11.00;8.32;;;23.00;99.90;;;;;;5056837;28;20017;-56
2023/09/19 01:00:39;;;;;;;11.70;8.38;;;23.00;99.90;;;;;;5062059;28;20031;-56
2023/09/19 01:03:06;;;;;;;9.77;8.05;;;23.00;99.90;;;;;;5067585;28;20036;-55
2023/09/19 01:05:33;;;;;;;10.02;8.13;;;23.00;99.90;;;;;;5065514;28;20494;-57
2023/09/19 01:07:59;;;;;;;11.23;7.95;;;22.90;99.90;;;;;;5060504;28;20427;-56
2023/09/19 01:10:25;;;;;;;10.77;7.93;;;22.90;99.90;;;;;;5032620;28;20037;-57
2023/09/19 01:13:18;;;;;;;9.45;8.45;;;22.90;99.90;;;;;;5067943;28;20021;-55
2023/09/19 01:16:13;;;;;;;9.13;7.50;;;23.00;99.90;;;;;;5061240;28;20021;-55
2023/09/19 01:19:11;;;;;;;9.35;7.05;;;23.00;99.90;;;;;;5066782;28;20028;-55
2023/09/19 01:21:56;;;;;;;12.20;8.43;;;22.70;99.90;;;;;;5055657;28;20044;-56
2023/09/19 01:24:35;;;;;;;12.45;7.75;;;;;;;;;;5069692;28;20776;-56
2023/09/19 01:27:14;;;;;;;11.88;8.35;;;22.60;99.90;;;;;;5064191;28;20469;-56
2023/09/19 01:29:44;;;;;;;11.30;6.65;;;22.70;99.90;;;;;;5059943;28;20029;-55
2023/09/19 01:32:13;;;;;;;10.27;7.60;;;22.70;99.90;;;;;;5033457;28;20029;-56
2023/09/19 01:34:47;;;;;;;11.57;8.13;;;22.50;99.90;;;;;;5062928;28;20458;-56
2023/09/19 01:37:14;;;;;;;12.20;7.63;;;22.50;99.90;;;;;;5061631;28;20036;-55
2023/09/19 01:39:41;;;;;;;11.35;6.95;;;22.60;99.90;;;;;;5063266;28;20061;-56
2023/09/19 01:42:55;;;;;;;14.68;7.28;;;22.50;99.90;;;;;;5064921;28;20036;-56
2023/09/19 01:45:33;;;;;;;10.90;6.68;;;22.50;99.90;;;;;;5071019;28;20090;-56
2023/09/19 01:48:06;;;;;;;7.57;5.88;;;;;;;;;;5027521;28;20484;-56
2023/09/19 01:50:43;;;;;;;12.15;6.25;;;22.20;99.90;;;;;;5064732;28;20040;-56
2023/09/19 01:53:24;;;;;;;10.35;6.72;;;22.20;99.90;;;;;;5057256;28;20111;-56
2023/09/19 01:55:51;;;;;;;12.40;6.97;;;22.30;99.90;;;;;;5059001;28;20032;-56
2023/09/19 01:58:24;;;;;;;10.77;7.05;;;22.30;99.90;;;;;;5027207;28;20036;-55
2023/09/19 02:00:51;;;;;;;12.35;7.57;;;22.40;99.90;;;;;;5063822;28;20066;-56
2023/09/19 02:03:18;;;;;;;9.73;6.53;;;22.50;99.90;;;;;;5063817;28;20089;-55
2023/09/19 02:05:50;;;;;;;11.65;6.75;;;22.40;99.90;;;;;;5065685;28;20028;-56
2023/09/19 02:08:19;;;;;;;10.25;7.22;;;22.40;99.90;;;;;;5066779;28;20116;-56
2023/09/19 02:10:48;;;;;;;8.75;6.90;;;22.30;99.90;;;;;;5067587;28;20087;-56
2023/09/19 02:13:19;;;;;;;12.25;7.47;;;22.50;99.90;;;;;;5060911;28;20086;-57
2023/09/19 02:15:44;;;;;;;10.27;6.88;;;22.60;99.90;;;;;;5062520;28;20064;-56
2023/09/19 02:18:14;;;;;;;9.77;6.55;;;22.50;99.90;;;;;;5070917;28;20055;-57
2023/09/19 02:20:40;;;;;;;12.02;7.05;;;22.30;99.90;;;;;;5063873;28;20060;-56
2023/09/19 02:23:07;;;;;;;9.70;6.60;;;22.50;99.90;;;;;;5062315;28;20079;-56
2023/09/19 02:25:35;;;;;;;10.70;7.15;;;22.50;99.90;;;;;;5061630;28;20080;-56
2023/09/19 02:28:02;;;;;;;9.05;7.35;;;22.50;99.90;;;;;;5069051;28;20074;-56
2023/09/19 02:30:28;;;;;;;10.25;8.07;;;22.60;99.90;;;;;;5068737;28;20055;-56
2023/09/19 02:32:55;;;;;;;9.65;7.13;;;22.60;99.90;;;;;;5066064;28;20481;-56
2023/09/19 02:35:21;;;;;;;11.63;7.30;;;22.50;99.90;;;;;;5072274;28;20442;-56
2023/09/19 02:37:47;;;;;;;10.93;7.90;;;22.50;99.90;;;;;;5065677;28;20115;-55
2023/09/19 02:40:19;;;;;;;10.40;7.15;;;22.50;99.90;;;;;;5027865;28;20029;-56
2023/09/19 02:42:49;;;;;;;9.35;6.97;;;;;;;;;;5068327;28;20044;-55
2023/09/19 02:45:18;;;;;;;9.02;6.82;;;22.20;99.90;;;;;;5064163;28;20546;-56
2023/09/19 02:47:45;;;;;;;8.77;5.88;;;22.20;99.90;;;;;;5031035;28;20033;-56
2023/09/19 02:50:11;;;;;;;7.80;6.43;;;22.20;99.90;;;;;;5025042;28;20409;-55
2023/09/19 02:52:37;;;;;;;10.88;6.80;;;22.20;99.90;;;;;;5021868;28;20600;-56
2023/09/19 02:55:05;;;;;;;13.90;7.68;;;22.30;99.90;;;;;;5019698;28;20078;-55
2023/09/19 02:57:33;;;;;;;8.95;7.03;;;22.40;99.90;;;;;;5025318;28;20033;-55
2023/09/19 03:00:00;;;;;;;8.50;6.45;;;22.40;99.90;;;;;;5024896;28;20417;-55
2023/09/19 03:02:27;;;;;;;9.05;6.90;;;22.30;99.90;;;;;;5023612;28;20045;-56
2023/09/19 03:04:53;;;;;;;11.55;7.60;;;22.40;99.90;;;;;;5021908;28;20068;-55
2023/09/19 03:07:20;;;;;;;11.05;7.18;;;22.50;99.90;;;;;;5025227;28;20021;-56
2023/09/19 03:09:46;;;;;;;10.35;7.40;;;22.60;99.90;;;;;;5029352;28;20038;-56
2023/09/19 03:12:14;;;;;;;9.00;6.75;;;22.60;99.90;;;;;;5023687;28;20129;-55
2023/09/19 03:14:40;;;;;;;10.68;7.72;;;22.50;99.90;;;;;;5018499;28;20079;-56
2023/09/19 03:17:05;;;;;;;8.63;7.15;;;22.50;99.90;;;;;;5017807;28;20038;-56
2023/09/19 03:19:34;;;;;;;11.25;7.30;;;22.60;99.90;;;;;;5028826;28;20116;-56
2023/09/19 03:22:00;;;;;;;8.55;7.43;;;22.60;99.90;;;;;;5060872;28;20052;-55
2023/09/19 03:24:26;;;;;;;9.93;7.32;;;22.60;99.90;;;;;;5035907;28;20049;-55
2023/09/19 03:26:52;;;;;;;10.15;7.47;;;22.80;99.90;;;;;;5056238;28;20029;-55
2023/09/19 03:29:18;;;;;;;10.13;7.50;;;22.80;99.90;;;;;;5059321;28;20162;-55
2023/09/19 03:31:44;;;;;;;10.07;7.50;;;22.80;99.90;;;;;;5064689;28;20111;-56
2023/09/19 03:34:09;;;;;;;9.90;7.45;;;22.90;99.90;;;;;;5062584;28;20024;-56
2023/09/19 03:36:35;;;;;;;11.50;6.70;;;22.80;99.90;;;;;;5066783;28;20033;-57
2023/09/19 03:39:04;;;;;;;11.23;7.70;;;22.90;99.90;;;;;;5062098;28;20060;-56
2023/09/19 03:41:31;;;;;;;12.70;7.82;;;22.70;99.90;;;;;;5064719;28;20040;-57
2023/09/19 03:43:57;;;;;;;12.30;7.75;;;22.80;99.90;;;;;;5025506;28;20051;-56
2023/09/19 03:46:23;;;;;;;11.20;7.95;;;22.80;99.90;;;;;;5056965;28;20384;-55
2023/09/19 03:48:48;;;;;;;11.85;8.02;;;22.70;99.90;;;;;;5071101;28;20025;-55
2023/09/19 03:51:14;;;;;;;8.80;7.55;;;22.70;99.90;;;;;;5064328;28;20365;-55
2023/09/19 03:53:40;;;;;;;12.18;7.97;;;22.70;99.90;;;;;;5030079;28;20052;-56
2023/09/19 03:56:06;;;;;;;9.43;7.85;;;22.80;99.90;;;;;;5011004;28;20041;-55
2023/09/19 03:58:33;;;;;;;9.85;7.47;;;22.80;99.90;;;;;;5059243;28;20028;-56
2023/09/19 04:01:00;;;;;;;9.27;7.43;;;22.70;99.90;;;;;;5023784;28;20124;-57
2023/09/19 04:03:34;;;;;;;8.48;7.38;;;22.60;99.90;;;;;;5031341;28;20055;-55
2023/09/19 04:06:00;;;;;;;9.13;6.90;;;22.50;99.90;;;;;;5027518;28;20040;-57
2023/09/19 04:08:26;;;;;;;10.48;7.72;;;22.40;99.90;;;;;;5067132;28;20021;-55
2023/09/19 04:10:52;;;;;;;11.13;8.40;;;22.40;99.90;;;;;;5068440;28;20031;-55
2023/09/19 04:13:18;;;;;;;12.57;8.13;;;22.40;99.90;;;;;;5059873;28;20035;-55
2023/09/19 04:15:46;;;;;;;9.95;7.70;;;22.50;99.90;;;;;;5062558;28;20024;-56
2023/09/19 04:18:12;;;;;;;12.50;7.90;;;22.50;99.90;;;;;;5061332;28;20437;-56
2023/09/19 04:20:37;;;;;;;9.05;7.78;;;22.40;99.90;;;;;;5064812;28;20082;-56
2023/09/19 04:23:05;;;;;;;9.43;7.85;;;22.30;99.90;;;;;;5057409;28;20041;-56
2023/09/19 04:25:31;;;;;;;10.82;8.40;;;22.40;99.90;;;;;;5067003;28;20376;-56
2023/09/19 04:27:57;;;;;;;9.48;7.40;;;22.60;99.90;;;;;;5064641;28;20444;-55
2023/09/19 04:30:23;;;;;;;12.75;8.30;;;22.60;99.90;;;;;;5054560;28;20059;-55
2023/09/19 04:32:50;;;;;;;10.70;8.50;;;22.70;99.90;;;;;;5060621;28;20480;-56
2023/09/19 04:35:16;;;;;;;9.82;8.10;;;22.70;99.90;;;;;;5065591;28;20040;-56
2023/09/19 04:37:42;;;;;;;11.80;9.00;;;22.70;99.90;;;;;;5020078;28;20488;-56
2023/09/19 04:40:12;;;;;;;10.73;8.95;;;22.80;99.90;;;;;;5061681;28;20025;-56
2023/09/19 04:42:39;;;;;;;9.35;7.80;;;22.70;99.90;;;;;;5055127;28;20040;-56
2023/09/19 04:45:05;;;;;;;9.40;7.72;;;22.80;99.90;;;;;;5062420;28;20491;-56
2023/09/19 04:47:31;;;;;;;9.70;7.80;;;22.90;99.90;;;;;;5025247;28;20108;-56
2023/09/19 04:49:58;;;;;;;9.40;8.10;;;23.00;99.90;;;;;;5066966;28;20170;-56
2023/09/19 04:52:24;;;;;;;11.45;8.30;;;22.90;99.90;;;;;;5064157;28;20033;-55
2023/09/19 04:54:50;;;;;;;10.95;8.30;;;22.80;99.90;;;;;;5031921;28;20048;-56
2023/09/19 04:57:16;;;;;;;10.90;8.00;;;22.80;99.90;;;;;;5069635;28;20028;-56
2023/09/19 04:59:41;;;;;;;11.13;7.70;;;22.80;99.90;;;;;;5008044;28;20029;-56
2023/09/19 05:02:11;;;;;;;11.45;7.95;;;;;;;;;;5063055;28;20476;-55
2023/09/19 05:04:38;;;;;;;10.25;8.40;;;;;;;;;;5063776;28;20445;-56
2023/09/19 05:07:04;;;;;;;10.02;7.22;;;23.20;99.90;;;;;;5065644;28;20029;-55
2023/09/19 05:09:30;;;;;;;12.00;8.18;;;23.10;99.90;;;;;;4996126;28;20407;-58
2023/09/19 05:11:56;;;;;;;12.70;8.60;;;23.10;99.90;;;;;;5067079;28;20037;-55
2023/09/19 05:14:23;;;;;;;10.35;8.05;;;23.20;99.90;;;;;;5022993;28;20033;-55
2023/09/19 05:16:48;;;;;;;11.93;8.88;;;23.20;99.90;;;;;;5061591;28;20082;-56
2023/09/19 05:19:14;;;;;;;10.95;9.25;;;23.20;99.90;;;;;;5067209;28;20029;-55
2023/09/19 05:21:40;;;;;;;12.50;8.40;;;23.30;99.90;;;;;;5012197;28;20036;-55
2023/09/19 05:24:06;;;;;;;12.27;8.00;;;23.20;99.90;;;;;;5020170;28;20047;-55
2023/09/19 05:26:32;;;;;;;12.52;8.40;;;23.30;99.90;;;;;;5012039;28;20565;-55
2023/09/19 05:28:58;;;;;;;12.93;8.55;;;23.30;99.90;;;;;;5066642;28;20025;-56
2023/09/19 05:31:24;;;;;;;14.35;8.30;;;;;;;;;;5064968;28;20040;-55
2023/09/19 05:33:50;;;;;;;11.85;8.30;;;23.50;99.90;;;;;;5010382;28;20033;-55
2023/09/19 05:36:17;;;;;;;10.45;8.27;;;;;;;;;;5032653;28;20036;-54
2023/09/19 05:38:44;;;;;;;13.45;8.25;;;23.60;99.90;;;;;;5061811;28;20146;-54
2023/09/19 05:41:13;;;;;;;11.57;8.02;;;23.70;99.90;;;;;;5058571;28;20110;-54
2023/09/19 05:43:40;;;;;;;10.63;7.50;;;;;;;;;;5063088;28;20041;-54
2023/09/19 05:46:08;;;;;;;11.95;8.27;;;23.90;99.90;;;;;;5066209;28;20029;-54
2023/09/19 05:48:33;;;;;;;11.60;7.57;;;23.80;99.90;;;;;;5022261;28;20044;-54
2023/09/19 05:51:01;;;;;;;12.88;7.70;;;24.00;99.90;;;;;;5071282;28;20021;-55
2023/09/19 05:53:28;;;;;;;10.63;7.85;;;24.10;99.90;;;;;;5065937;28;20036;-54
2023/09/19 05:55:55;;;;;;;12.65;8.88;;;24.10;99.90;;;;;;5068381;28;20365;-54
2023/09/19 05:58:21;;;;;;;11.73;8.50;;;23.90;99.90;;;;;;5067597;28;20044;-54
2023/09/19 06:00:49;;;;;;;9.07;8.18;;;23.90;99.90;;;;;;5066463;28;20029;-54
2023/09/19 06:03:14;;;;;;;12.13;9.00;;;24.10;99.90;;;;;;5066572;28;20037;-54
2023/09/19 06:05:41;;;;;;;11.40;8.27;;;;;;;;;;5072652;28;20371;-54
2023/09/19 06:08:07;;;;;;;15.13;8.32;;;24.50;99.90;;;;;;5066730;28;20479;-54
2023/09/19 06:10:34;;;;;;;11.50;9.05;;;24.40;99.90;;;;;;5069203;28;20020;-53
2023/09/19 06:13:04;;;;;;;13.45;8.98;;;24.50;99.90;;;;;;5065735;28;20033;-54
2023/09/19 06:15:32;;;;;;;11.15;8.98;;;24.50;99.90;;;;;;5063691;28;20051;-54
2023/09/19 06:17:59;;;;;;;12.15;9.23;;;;;;;;;;5070807;28;20021;-54
2023/09/19 06:20:26;;;;;;;12.77;8.43;;;25.00;99.90;;;;;;5033278;28;20044;-54
2023/09/19 06:22:53;;;;;;;13.07;8.30;;;25.00;99.90;;;;;;5059942;28;20456;-54
2023/09/19 06:25:19;;;;;;;13.50;9.07;;;25.00;99.90;;;;;;5031522;28;20060;-54
2023/09/19 06:27:51;;;;;;;12.02;8.93;;;25.10;99.90;;;;;;5033061;28;20040;-55
2023/09/19 06:30:17;;;;;;;15.02;8.50;;;25.00;99.90;;;;;;5028389;28;20107;-54
2023/09/19 06:32:43;;;;;;;13.45;8.82;;;24.90;99.90;;;;;;5028235;28;20034;-54
2023/09/19 06:35:11;;;;;;;9.88;8.43;;;25.30;99.90;;;;;;5033335;28;20088;-55
2023/09/19 06:37:40;;;;;;;14.25;8.88;;;;;;;;;;5030658;28;20052;-55
2023/09/19 06:40:14;;;;;;;10.70;9.07;;;25.70;99.90;;;;;;5026159;28;20473;-57
2023/09/19 06:42:42;;;;;;;14.75;10.80;;;25.60;99.90;;;;;;5028324;28;20492;-55
2023/09/19 06:45:10;;;;;;;12.68;9.95;;;25.70;99.90;;;;;;5031441;28;20033;-56
2023/09/19 06:47:37;;;;;;;17.60;9.50;;;;;;;;;;5028942;28;20037;-55
2023/09/19 06:50:03;;;;;;;10.60;9.10;;;26.10;99.90;;;;;;4998778;28;20029;-55
2023/09/19 06:52:29;;;;;;;14.18;9.55;;;26.10;99.90;;;;;;5028807;28;20041;-55
2023/09/19 06:54:55;;;;;;;11.95;8.02;;;26.30;99.90;;;;;;4961982;28;20033;-56
2023/09/19 06:57:20;;;;;;;12.45;8.35;;;26.20;99.90;;;;;;5046181;28;20040;-54
2023/09/19 06:59:46;;;;;;;12.30;8.07;;;26.40;99.90;;;;;;5016282;28;20033;-55
2023/09/19 07:02:13;;;;;;;13.80;8.60;;;26.30;99.90;;;;;;5021599;28;20385;-55
2023/09/19 07:04:40;;;;;;;10.95;7.95;;;;;;;;;;5049088;28;20112;-55
2023/09/19 07:07:08;;;;;;;12.60;9.18;;;;;;;;;;5047785;28;20035;-55
2023/09/19 07:09:34;;;;;;;9.88;8.63;;;26.60;99.90;;;;;;5049732;28;20051;-55
2023/09/19 07:12:00;;;;;;;11.73;9.02;;;27.00;99.90;;;;;;5043613;28;20489;-56
2023/09/19 07:14:27;;;;;;;9.45;7.75;;;;;;;;;;4968064;28;20049;-55
2023/09/19 07:16:54;;;;;;;12.80;9.18;;;;;;;;;;5048649;28;20120;-55
2023/09/19 07:19:20;;;;;;;11.38;8.25;;;;;;;;;;5033332;28;20073;-55
2023/09/19 07:21:47;;;;;;;15.10;9.93;;;;;;;;;;5044934;28;20489;-55
2023/09/19 07:24:13;;;;;;;14.45;8.98;;;;;;;;;;5047718;28;20531;-57
2023/09/19 07:26:39;;;;;;;18.80;9.00;;;;;;;;;;5029878;28;20099;-55
2023/09/19 07:29:06;;;;;;;15.55;12.35;;;;;;;;;;5071439;28;20103;-55
2023/09/19 07:31:33;;;;;;;16.10;10.50;;;;;;;;;;5068413;28;20068;-55
2023/09/19 07:33:59;;;;;;;15.00;9.75;;;29.20;99.90;;;;;;5064242;28;20077;-55
2023/09/19 07:36:25;;;;;;;14.27;9.65;;;29.40;99.90;;;;;;5028706;28;20037;-55
2023/09/19 07:38:50;;;;;;;16.05;9.82;;;30.30;99.90;;;;;;5062256;28;20036;-55
2023/09/19 07:41:16;;;;;;;13.48;9.13;;;30.30;99.90;;;;;;5015028;28;20035;-56
2023/09/19 07:43:43;;;;;;;15.90;9.55;;;30.50;99.90;;;;;;5014728;28;20048;-56
2023/09/19 07:46:09;;;;;;;9.80;7.53;;;;;;;;;;5029186;28;20037;-55
2023/09/19 07:48:38;;;;;;;10.90;8.82;;;;;;;;;;5069672;28;20036;-55
2023/09/19 07:51:06;;;;;;;15.57;9.02;;;;;;;;;;5066181;28;20024;-55
2023/09/19 07:53:34;;;;;;;12.45;8.55;;;;;;;;;;5066225;28;20032;-55
2023/09/19 07:56:07;;;;;;;13.20;8.63;;;32.20;99.90;;;;;;5067113;28;20029;-56
2023/09/19 07:58:34;;;;;;;16.10;8.60;;;32.20;99.90;;;;;;5076611;28;20089;-56
2023/09/19 08:01:10;;;;;;;12.18;8.05;;;;;;;;;;5065587;28;20472;-56
2023/09/19 08:03:40;;;;;;;13.73;7.88;;;33.00;99.90;;;;;;5060908;28;20166;-56
2023/09/19 08:06:07;;;;;;;12.35;7.88;;;32.20;99.90;;;;;;5068248;28;20028;-55
2023/09/19 08:08:36;;;;;;;14.90;7.40;;;;;;;;;;5028743;28;20127;-55
2023/09/19 08:11:12;;;;;;;13.40;7.80;;;33.20;99.90;;;;;;5062286;28;20025;-56
2023/09/19 08:13:43;;;;;;;13.63;8.60;;;33.20;99.40;;;;;;5062061;28;20034;-55
2023/09/19 08:16:10;;;;;;;13.55;8.50;;;;;;;;;;5066233;28;20107;-56
2023/09/19 08:18:37;;;;;;;13.98;8.35;;;34.10;99.90;;;;;;5022858;28;20040;-55
2023/09/19 08:21:03;;;;;;;11.27;8.25;;;;;;;;;;5065942;28;20033;-55
2023/09/19 08:23:29;;;;;;;14.70;8.35;;;35.40;99.90;;;;;;5065303;28;20032;-56
2023/09/19 08:26:02;;;;;;;17.65;8.93;;;34.70;99.70;;;;;;5062620;28;20051;-56
2023/09/19 08:28:29;;;;;;;15.32;8.82;;;;;;;;;;5060290;28;20098;-54
2023/09/19 08:30:55;;;;;;;14.43;8.30;;;34.80;99.90;;;;;;5066532;28;20020;-55
2023/09/19 08:33:21;;;;;;;18.67;8.65;;;34.80;99.90;;;;;;5064314;28;20107;-56
2023/09/19 08:35:47;;;;;;;16.25;8.77;;;35.10;99.90;;;;;;5055347;28;20111;-54
2023/09/19 08:38:14;;;;;;;16.13;8.75;;;;;;;;;;4994737;28;20067;-54
2023/09/19 08:40:41;;;;;;;15.93;8.70;;;35.00;99.90;;;;;;5059610;28;20060;-54
2023/09/19 08:43:08;;;;;;;12.82;8.20;;;35.50;99.90;;;;;;5060946;28;20123;-54
2023/09/19 08:45:34;;;;;;;16.17;9.45;;;;;;;;;;5067699;28;20029;-54
2023/09/19 08:48:08;;;;;;;16.73;9.52;;;;;;;;;;5062514;28;20048;-54
2023/09/19 08:50:43;;;;;;;14.15;8.15;;;36.40;96.70;;;;;;5064668;28;20036;-54
2023/09/19 08:53:15;;;;;;;16.00;9.20;;;36.40;96.50;;;;;;5063876;28;20467;-55
2023/09/19 08:55:46;;;;;;;17.17;8.82;;;36.50;96.30;;;;;;5064265;28;20029;-54
2023/09/19 08:58:19;;;;;;;17.00;9.20;;;35.80;95.90;;;;;;5069944;28;20042;-54
2023/09/19 09:00:49;;;;;;;12.55;8.93;;;35.50;97.20;;;;;;5005754;28;20089;-54
2023/09/19 09:03:19;;;;;;;18.02;9.65;;;35.10;99.90;;;;;;4999901;28;20129;-54
2023/09/19 09:05:47;;;;;;;17.88;9.45;;;35.10;99.90;;;;;;5003023;28;20041;-54
2023/09/19 09:08:14;;;;;;;17.45;8.02;;;;;;;;;;5005990;28;20057;-54
2023/09/19 09:10:43;;;;;;;16.80;8.55;;;;;;;;;;5007238;28;20152;-54
2023/09/19 09:13:10;;;;;;;21.58;9.90;;;;;;;;;;5006002;28;20040;-54
2023/09/19 09:15:37;;;;;;;15.88;8.98;;;;;;;;;;5006662;28;20170;-54
2023/09/19 09:18:04;;;;;;;22.50;8.10;;;;;;;;;;5012837;28;20037;-54
2023/09/19 09:20:30;;;;;;;21.35;7.65;;;;;;;;;;4999831;28;20041;-55
2023/09/19 09:23:03;;;;;;;17.30;7.57;;;;;;;;;;5008928;28;20091;-54
2023/09/19 09:25:59;;;;;;;17.23;7.38;;;;;;;;;;5014500;28;20050;-54
2023/09/19 09:28:26;;;;;;;16.50;6.90;;;;;;;;;;5006760;28;20029;-55
2023/09/19 09:30:52;;;;;;;15.77;7.03;;;;;;;;;;5020094;28;20068;-55
2023/09/19 09:33:18;;;;;;;14.80;7.18;;;;;;;;;;5033189;28;20037;-55
2023/09/19 09:36:04;;;;;;;19.30;7.07;;;;;;;;;;5024955;28;20489;-55
2023/09/19 09:38:43;;;;;;;17.80;6.85;;;;;;;;;;5008205;28;20598;-55
2023/09/19 09:41:09;;;;;;;18.38;6.80;;;;;;;;;;5023758;28;20068;-54
2023/09/19 09:43:38;;;;;;;19.73;6.03;;;;;;;;;;5032045;28;20111;-54
2023/09/19 09:46:55;;;;;;;17.55;5.90;;;;;;;;;;5025558;28;20100;-55
2023/09/19 09:52:16;;;;;;;17.80;6.28;;;;;;;;;;5011533;28;20044;-55
2023/09/19 09:54:58;;;;;;;18.80;6.95;;;;;;;;;;5032086;28;20512;-56
2023/09/19 09:57:25;;;;;;;13.70;6.70;;;37.50;99.90;;;;;;5017154;28;20112;-55
2023/09/19 09:59:58;;;;;;;19.42;6.68;;;;;;;;;;5022523;28;20040;-54
2023/09/19 10:02:36;;;;;;;21.33;8.23;;;;;;;;;;5006838;28;20048;-54
2023/09/19 10:05:28;;;;;;;22.40;7.15;;;35.10;97.30;;;;;;5021114;28;20452;-54
2023/09/19 10:08:00;;;;;;;21.60;7.28;;;34.90;95.40;;;;;;5021438;28;20497;-55
2023/09/19 10:10:53;;;;;;;21.10;6.40;;;34.40;92.50;;;;;;5021001;28;20041;-55
2023/09/19 10:13:25;;;;;;;20.27;5.80;;;34.90;92.70;;;;;;5020411;28;20036;-55
2023/09/19 10:15:51;;;;;;;;;;;;;;;;;;5026956;28;20139;-55
2023/09/19 10:18:29;;;;;;;20.25;7.05;;;35.30;92.70;;;;;;5024152;28;19917;-55
2023/09/19 10:20:56;;;;;;;21.83;5.97;;;34.60;93.00;;;;;;5019168;28;20091;-55
2023/09/19 10:23:27;;;;;;;23.95;6.88;;;34.50;93.30;;;;;;5023615;28;20041;-55
2023/09/19 10:25:53;;;;;;;23.95;6.45;;;33.50;93.30;;;;;;5026519;28;20144;-55
2023/09/19 10:28:23;;;;;;;24.65;7.60;;;33.50;93.50;;;;;;5031527;28;20030;-55
2023/09/19 10:30:53;;;;;;;28.90;6.50;;;33.60;93.80;;;;;;5027463;28;20041;-54
2023/09/19 10:33:20;;;;;;;27.77;8.23;;;;;;;;;;5016118;28;20044;-54
2023/09/19 10:35:51;;;;;;;25.48;7.43;;;32.30;99.90;;;;;;5068876;28;20098;-54
2023/09/19 10:38:23;;;;;;;22.05;6.22;;;32.10;95.40;;;;;;5070382;28;20440;-53
2023/09/19 10:40:51;;;;;;;23.98;8.02;;;31.20;96.50;;;;;;5056967;28;20033;-53
2023/09/19 10:43:20;;;;;;;25.13;7.40;;;30.80;96.90;;;;;;5066850;28;20570;-53
2023/09/19 10:45:53;;;;;;;28.67;8.48;;;30.80;97.40;;;;;;5070249;28;20042;-56
2023/09/19 10:48:20;;;;;;;21.67;8.98;;;;;;;;;;5047331;28;20044;-54
2023/09/19 10:50:50;;;;;;;28.60;8.68;;;30.20;99.90;;;;;;5062869;28;20028;-53
2023/09/19 10:53:17;;;;;;;28.33;8.33;;;29.10;99.50;;;;;;5069539;28;20032;-53
2023/09/19 10:55:50;;;;;;;27.70;6.70;;;;;;;;;;5068531;28;20035;-54
2023/09/19 14:24:59;;;;;;;13.30;4.00;;;;;;;;;;5319002;22;1331062;-56
2023/09/19 14:27:25;;;;;;;14.90;4.13;;;;;;;;;;5070415;28;20043;-57
2023/09/19 14:29:51;;;;;;;14.60;4.15;;;29.00;98.50;;;;;;5072580;28;20036;-56
2023/09/19 14:32:17;;;;;;;19.10;4.20;;;29.10;98.40;;;;;;5101690;28;20620;-56
2023/09/19 14:34:44;;;;;;;10.13;3.33;;;29.10;98.80;;;;;;5109863;28;20035;-55
2023/09/19 14:37:11;;;;;;;12.70;3.70;;;29.40;98.60;;;;;;5110756;28;20090;-56
2023/09/19 14:39:40;;;;;;;9.18;3.58;;;;;;;;;;5107942;28;20031;-55
2023/09/19 14:42:06;;;;;;;9.98;3.60;;;29.80;97.80;;;;;;5105606;28;20031;-56
2023/09/19 14:44:32;;;;;;;10.00;3.33;;;29.80;97.80;;;;;;5092667;28;20057;-56
2023/09/19 14:46:58;;;;;;;20.15;3.63;;;30.10;98.10;;;;;;5108244;28;20027;-56
2023/09/19 14:49:25;;;;;;;15.85;4.10;;;;;;;;;;5104219;28;20035;-56
2023/09/19 14:51:52;;;;;;;19.20;3.55;;;30.70;97.10;;;;;;5108254;28;20028;-56
2023/09/19 14:54:18;;;;;;;9.63;3.25;;;30.80;97.30;;;;;;5110127;28;20024;-56
2023/09/19 14:56:44;;;;;;;13.65;3.33;;;30.40;97.50;;;;;;5101581;28;20032;-54
2023/09/19 14:59:10;;;;;;;14.05;3.50;;;30.50;97.20;;;;;;5099232;28;20115;-54
2023/09/19 15:01:37;;;;;;;16.38;4.00;;;30.30;97.30;;;;;;5071503;28;20051;-54
2023/09/19 15:04:03;;;;;;;19.55;3.70;;;30.20;97.30;;;;;;5103556;28;20031;-54
2023/09/19 15:06:30;;;;;;;11.57;3.08;;;29.80;97.20;;;;;;5100893;28;20120;-54
2023/09/19 15:08:55;;;;;;;12.73;3.08;;;29.40;97.40;;;;;;5104687;28;20035;-54
2023/09/19 15:11:22;;;;;;;11.40;3.13;;;29.20;97.80;;;;;;5108882;28;20069;-55
2023/09/19 15:13:48;;;;;;;10.32;3.53;;;;;;;;;;5109830;28;20042;-54
2023/09/19 15:16:14;;;;;;;11.98;3.35;;;28.60;97.90;;;;;;5103011;28;20091;-56
2023/09/19 15:18:42;;;;;;;11.32;3.08;;;28.40;98.20;;;;;;5105512;28;20553;-54
2023/09/19 15:21:10;;;;;;;13.40;3.63;;;28.40;98.30;;;;;;5073526;28;20040;-54
2023/09/19 15:23:37;;;;;;;11.80;3.53;;;28.20;98.20;;;;;;5105458;28;20502;-54
2023/09/19 15:26:22;;;;;;;13.30;3.72;;;;;;;;;;5104078;28;20493;-55
2023/09/19 15:28:49;;;;;;;12.30;3.28;;;28.20;98.00;;;;;;5072112;28;20105;-55
2023/09/19 15:31:15;;;;;;;7.95;2.60;;;28.00;98.50;;;;;;5105993;28;20041;-55
2023/09/19 15:33:41;;;;;;;10.43;2.85;;;;;;;;;;5108695;28;20036;-56
2023/09/19 15:36:08;;;;;;;14.38;3.97;;;;;;;;;;5106740;28;20024;-55
2023/09/19 15:38:56;;;;;;;12.43;2.78;;;;;;;;;;5096665;28;20048;-55
2023/09/19 15:41:23;;;;;;;12.75;3.08;;;;;;;;;;5101012;28;20103;-55
2023/09/19 15:43:49;;;;;;;10.85;3.38;;;;;;;;;;5073946;28;20039;-56
2023/09/19 15:46:15;;;;;;;11.93;3.42;;;;;;;;;;5114157;28;20024;-55
2023/09/19 15:48:41;;;;;;;12.65;3.03;;;;;;;;;;5092423;28;20044;-56
2023/09/19 15:51:07;;;;;;;7.82;3.28;;;27.00;99.10;;;;;;5111450;28;20035;-55
2023/09/19 15:53:50;;;;;;;9.95;3.17;;;26.90;99.40;;;;;;5113153;28;20030;-55
2023/09/19 15:56:17;;;;;;;9.90;3.00;;;;;;;;;;5109793;28;20024;-55
2023/09/19 15:58:46;;;;;;;8.77;2.90;;;;;;;;;;5113085;28;20161;-55
2023/09/19 16:01:13;;;;;;;11.10;3.10;;;;;;;;;;5102570;28;20028;-57
2023/09/19 16:03:39;;;;;;;7.43;2.60;;;;;;;;;;5091345;28;20118;-57
2023/09/19 16:06:12;;;;;;;8.18;3.28;;;;;;;;;;5109773;28;20391;-54
2023/09/19 16:08:42;;;;;;;8.73;3.67;;;;;;;;;;5102865;27;20036;-52
2023/09/19 16:11:09;;;;;;;9.93;3.15;;;27.10;99.00;;;;;;5105048;28;20038;-53
2023/09/19 16:13:39;;;;;;;12.38;2.90;;;27.20;99.20;;;;;;5109137;28;20053;-55
2023/09/19 16:16:05;;;;;;;10.48;2.70;;;27.10;99.20;;;;;;5110932;28;20100;-54
2023/09/19 16:18:33;;;;;;;12.70;2.88;;;27.20;99.10;;;;;;5109665;28;20034;-53
2023/09/19 16:21:10;;;;;;;13.35;4.32;;;27.10;99.10;;;;;;5109044;28;20016;-53
2023/09/19 16:23:36;;;;;;;10.50;3.05;;;27.20;99.10;;;;;;5105697;28;20031;-53
2023/09/19 16:26:07;;;;;;;13.80;3.45;;;27.20;99.10;;;;;;5112594;28;20109;-53
2023/09/19 16:28:34;;;;;;;9.32;3.22;;;27.20;99.30;;;;;;5073712;28;20108;-54
2023/09/19 16:31:01;;;;;;;11.15;3.00;;;27.10;99.40;;;;;;5110311;28;20119;-53
2023/09/19 16:33:34;;;;;;;16.33;4.10;;;27.00;99.60;;;;;;5109825;28;20104;-53
2023/09/19 16:36:01;;;;;;;13.18;3.97;;;27.00;99.70;;;;;;5112112;28;20032;-53
2023/09/19 16:38:27;;;;;;;11.43;3.13;;;27.00;99.80;;;;;;5115986;28;20039;-53
2023/09/19 16:41:00;;;;;;;12.38;3.47;;;26.90;99.80;;;;;;5114818;28;20114;-52
2023/09/19 16:43:27;;;;;;;15.32;3.58;;;26.80;99.90;;;;;;5115459;28;20114;-53